sensor_id;sensor_type;location;lat;lon;timestamp;P1;durP1;ratioP1;P2;durP2;ratioP2
63555;SDS011;49700;48.072;7.800;2023-04-16T00:01:05;12.70;;;10.27;;
63555;SDS011;49700;48.072;7.800;2023-04-16T00:03:30;17.67;;;10.90;;
63555;SDS011;49700;48.072;7.800;2023-04-16T00:05:56;13.43;;;9.23;;
63555;SDS011;49700;48.072;7.800;2023-04-16T00:08:22;15.20;;;11.07;;
63555;SDS011;49700;48.072;7.800;2023-04-16T00:10:49;18.63;;;12.23;;
63555;SDS011;49700;48.072;7.800;2023-04-16T00:13:15;12.57;;;9.93;;
63555;SDS011;49700;48.072;7.800;2023-04-16T00:15:40;15.43;;;9.87;;
63555;SDS011;49700;48.072;7.800;2023-04-16T00:18:06;14.43;;;10.40;;
63555;SDS011;49700;48.072;7.800;2023-04-16T00:20:31;13.30;;;9.27;;
63555;SDS011;49700;48.072;7.800;2023-04-16T00:22:56;14.43;;;10.77;;
63555;SDS011;49700;48.072;7.800;2023-04-16T00:25:22;13.17;;;9.60;;
63555;SDS011;49700;48.072;7.800;2023-04-16T00:27:48;14.20;;;9.80;;
63555;SDS011;49700;48.072;7.800;2023-04-16T00:30:13;9.53;;;8.30;;
63555;SDS011;49700;48.072;7.800;2023-04-16T00:32:39;10.67;;;8.17;;
63555;SDS011;49700;48.072;7.800;2023-04-16T00:35:04;12.17;;;9.23;;
63555;SDS011;49700;48.072;7.800;2023-04-16T00:37:30;11.40;;;8.85;;
63555;SDS011;49700;48.072;7.800;2023-04-16T00:39:56;11.97;;;8.30;;
63555;SDS011;49700;48.072;7.800;2023-04-16T00:42:21;14.17;;;8.53;;
63555;SDS011;49700;48.072;7.800;2023-04-16T00:44:46;12.43;;;8.60;;
63555;SDS011;49700;48.072;7.800;2023-04-16T00:47:12;9.50;;;8.07;;
63555;SDS011;49700;48.072;7.800;2023-04-16T00:49:38;9.88;;;7.70;;
63555;SDS011;49700;48.072;7.800;2023-04-16T00:52:03;9.90;;;7.83;;
63555;SDS011;49700;48.072;7.800;2023-04-16T00:54:29;8.90;;;7.03;;
63555;SDS011;49700;48.072;7.800;2023-04-16T00:56:56;9.23;;;7.88;;
63555;SDS011;49700;48.072;7.800;2023-04-16T00:59:23;10.20;;;7.32;;
63555;SDS011;49700;48.072;7.800;2023-04-16T01:01:49;9.77;;;7.10;;
63555;SDS011;49700;48.072;7.800;2023-04-16T01:04:14;12.73;;;8.73;;
63555;SDS011;49700;48.072;7.800;2023-04-16T01:06:41;8.55;;;7.55;;
63555;SDS011;49700;48.072;7.800;2023-04-16T01:09:06;9.40;;;7.13;;
63555;SDS011;49700;48.072;7.800;2023-04-16T01:11:31;8.23;;;7.03;;
63555;SDS011;49700;48.072;7.800;2023-04-16T01:13:57;9.87;;;8.10;;
63555;SDS011;49700;48.072;7.800;2023-04-16T01:16:22;8.10;;;7.23;;
63555;SDS011;49700;48.072;7.800;2023-04-16T01:18:48;7.97;;;6.70;;
63555;SDS011;49700;48.072;7.800;2023-04-16T01:21:13;9.17;;;6.40;;
63555;SDS011;49700;48.072;7.800;2023-04-16T01:23:39;8.40;;;7.50;;
63555;SDS011;49700;48.072;7.800;2023-04-16T01:26:04;6.83;;;5.80;;
63555;SDS011;49700;48.072;7.800;2023-04-16T01:28:30;9.60;;;7.50;;
63555;SDS011;49700;48.072;7.800;2023-04-16T01:30:56;9.20;;;7.37;;
63555;SDS011;49700;48.072;7.800;2023-04-16T01:33:53;11.13;;;8.13;;
63555;SDS011;49700;48.072;7.800;2023-04-16T01:36:19;10.77;;;7.97;;
63555;SDS011;49700;48.072;7.800;2023-04-16T01:38:44;10.77;;;8.63;;
63555;SDS011;49700;48.072;7.800;2023-04-16T01:41:10;10.60;;;8.47;;
63555;SDS011;49700;48.072;7.800;2023-04-16T01:43:35;10.30;;;8.10;;
63555;SDS011;49700;48.072;7.800;2023-04-16T01:46:14;10.33;;;8.50;;
63555;SDS011;49700;48.072;7.800;2023-04-16T01:48:44;10.65;;;8.52;;
63555;SDS011;49700;48.072;7.800;2023-04-16T01:51:12;8.77;;;7.35;;
63555;SDS011;49700;48.072;7.800;2023-04-16T01:53:38;11.40;;;8.30;;
63555;SDS011;49700;48.072;7.800;2023-04-16T01:56:03;10.70;;;8.00;;
63555;SDS011;49700;48.072;7.800;2023-04-16T01:58:30;11.13;;;7.95;;
63555;SDS011;49700;48.072;7.800;2023-04-16T02:01:00;10.77;;;8.50;;
63555;SDS011;49700;48.072;7.800;2023-04-16T02:03:29;9.45;;;6.97;;
63555;SDS011;49700;48.072;7.800;2023-04-16T02:05:57;10.63;;;8.20;;
63555;SDS011;49700;48.072;7.800;2023-04-16T02:08:25;12.10;;;8.40;;
63555;SDS011;49700;48.072;7.800;2023-04-16T02:10:55;10.30;;;8.05;;
63555;SDS011;49700;48.072;7.800;2023-04-16T02:13:22;13.07;;;9.10;;
63555;SDS011;49700;48.072;7.800;2023-04-16T02:15:50;11.30;;;9.27;;
63555;SDS011;49700;48.072;7.800;2023-04-16T02:18:23;12.48;;;8.57;;
63555;SDS011;49700;48.072;7.800;2023-04-16T02:20:48;9.87;;;8.20;;
63555;SDS011;49700;48.072;7.800;2023-04-16T02:23:14;13.93;;;9.87;;
63555;SDS011;49700;48.072;7.800;2023-04-16T02:25:40;13.20;;;8.80;;
63555;SDS011;49700;48.072;7.800;2023-04-16T02:28:09;11.35;;;9.15;;
63555;SDS011;49700;48.072;7.800;2023-04-16T02:30:38;13.63;;;9.98;;
63555;SDS011;49700;48.072;7.800;2023-04-16T02:33:06;16.35;;;11.07;;
63555;SDS011;49700;48.072;7.800;2023-04-16T02:35:34;12.77;;;10.18;;
63555;SDS011;49700;48.072;7.800;2023-04-16T02:38:00;12.75;;;9.05;;
63555;SDS011;49700;48.072;7.800;2023-04-16T02:40:26;11.68;;;9.25;;
63555;SDS011;49700;48.072;7.800;2023-04-16T02:42:52;12.53;;;11.03;;
63555;SDS011;49700;48.072;7.800;2023-04-16T02:45:18;15.55;;;9.55;;
63555;SDS011;49700;48.072;7.800;2023-04-16T02:47:45;11.35;;;9.23;;
63555;SDS011;49700;48.072;7.800;2023-04-16T02:50:10;11.80;;;8.93;;
63555;SDS011;49700;48.072;7.800;2023-04-16T02:52:36;14.87;;;10.20;;
63555;SDS011;49700;48.072;7.800;2023-04-16T02:55:01;11.70;;;10.43;;
63555;SDS011;49700;48.072;7.800;2023-04-16T02:57:27;12.30;;;8.87;;
63555;SDS011;49700;48.072;7.800;2023-04-16T02:59:52;13.40;;;8.83;;
63555;SDS011;49700;48.072;7.800;2023-04-16T03:02:18;14.60;;;9.53;;
63555;SDS011;49700;48.072;7.800;2023-04-16T03:04:43;13.30;;;8.73;;
63555;SDS011;49700;48.072;7.800;2023-04-16T03:07:09;12.27;;;10.07;;
63555;SDS011;49700;48.072;7.800;2023-04-16T03:09:36;9.88;;;8.75;;
63555;SDS011;49700;48.072;7.800;2023-04-16T03:12:02;12.27;;;9.07;;
63555;SDS011;49700;48.072;7.800;2023-04-16T03:14:27;13.60;;;9.23;;
63555;SDS011;49700;48.072;7.800;2023-04-16T03:16:53;12.63;;;9.13;;
63555;SDS011;49700;48.072;7.800;2023-04-16T03:19:18;14.87;;;9.70;;
63555;SDS011;49700;48.072;7.800;2023-04-16T03:21:44;15.33;;;10.43;;
63555;SDS011;49700;48.072;7.800;2023-04-16T03:24:09;10.63;;;8.73;;
63555;SDS011;49700;48.072;7.800;2023-04-16T03:26:35;15.60;;;10.30;;
63555;SDS011;49700;48.072;7.800;2023-04-16T03:29:01;12.57;;;9.17;;
63555;SDS011;49700;48.072;7.800;2023-04-16T03:31:29;16.02;;;9.88;;
63555;SDS011;49700;48.072;7.800;2023-04-16T03:33:55;15.30;;;9.20;;
63555;SDS011;49700;48.072;7.800;2023-04-16T03:36:20;15.47;;;9.87;;
63555;SDS011;49700;48.072;7.800;2023-04-16T03:38:47;12.82;;;10.25;;
63555;SDS011;49700;48.072;7.800;2023-04-16T03:41:13;14.13;;;11.27;;
63555;SDS011;49700;48.072;7.800;2023-04-16T03:43:39;11.77;;;9.03;;
63555;SDS011;49700;48.072;7.800;2023-04-16T03:46:05;12.82;;;9.50;;
63555;SDS011;49700;48.072;7.800;2023-04-16T03:48:31;12.23;;;9.93;;
63555;SDS011;49700;48.072;7.800;2023-04-16T03:50:57;16.10;;;9.20;;
63555;SDS011;49700;48.072;7.800;2023-04-16T03:53:22;12.17;;;9.30;;
63555;SDS011;49700;48.072;7.800;2023-04-16T03:55:48;14.53;;;10.23;;
63555;SDS011;49700;48.072;7.800;2023-04-16T03:58:18;10.95;;;8.25;;
63555;SDS011;49700;48.072;7.800;2023-04-16T04:00:45;13.88;;;9.73;;
63555;SDS011;49700;48.072;7.800;2023-04-16T04:03:13;12.63;;;9.52;;
63555;SDS011;49700;48.072;7.800;2023-04-16T04:05:43;11.70;;;8.65;;
63555;SDS011;49700;48.072;7.800;2023-04-16T04:08:11;12.40;;;8.77;;
63555;SDS011;49700;48.072;7.800;2023-04-16T04:10:37;13.27;;;10.13;;
63555;SDS011;49700;48.072;7.800;2023-04-16T04:13:04;10.50;;;8.35;;
63555;SDS011;49700;48.072;7.800;2023-04-16T04:15:32;11.27;;;9.02;;
63555;SDS011;49700;48.072;7.800;2023-04-16T04:17:57;13.40;;;9.33;;
63555;SDS011;49700;48.072;7.800;2023-04-16T04:20:23;11.57;;;9.47;;
63555;SDS011;49700;48.072;7.800;2023-04-16T04:22:50;8.82;;;7.97;;
63555;SDS011;49700;48.072;7.800;2023-04-16T04:25:18;12.82;;;9.73;;
63555;SDS011;49700;48.072;7.800;2023-04-16T04:27:43;15.00;;;9.10;;
63555;SDS011;49700;48.072;7.800;2023-04-16T04:30:09;9.83;;;8.50;;
63555;SDS011;49700;48.072;7.800;2023-04-16T04:32:35;14.30;;;8.57;;
63555;SDS011;49700;48.072;7.800;2023-04-16T04:35:01;11.13;;;9.03;;
63555;SDS011;49700;48.072;7.800;2023-04-16T04:37:27;14.80;;;9.77;;
63555;SDS011;49700;48.072;7.800;2023-04-16T04:39:52;9.83;;;8.23;;
63555;SDS011;49700;48.072;7.800;2023-04-16T04:42:19;11.90;;;8.17;;
63555;SDS011;49700;48.072;7.800;2023-04-16T04:44:45;11.90;;;9.57;;
63555;SDS011;49700;48.072;7.800;2023-04-16T04:47:11;13.77;;;9.77;;
63555;SDS011;49700;48.072;7.800;2023-04-16T04:49:36;13.77;;;9.33;;
63555;SDS011;49700;48.072;7.800;2023-04-16T04:52:02;12.13;;;8.77;;
63555;SDS011;49700;48.072;7.800;2023-04-16T04:54:29;13.75;;;8.00;;
63555;SDS011;49700;48.072;7.800;2023-04-16T04:56:56;10.07;;;8.68;;
63555;SDS011;49700;48.072;7.800;2023-04-16T04:59:22;14.23;;;10.03;;
63555;SDS011;49700;48.072;7.800;2023-04-16T05:01:48;11.90;;;9.90;;
63555;SDS011;49700;48.072;7.800;2023-04-16T05:04:14;12.37;;;10.20;;
63555;SDS011;49700;48.072;7.800;2023-04-16T05:06:40;13.57;;;8.80;;
63555;SDS011;49700;48.072;7.800;2023-04-16T05:09:05;12.80;;;9.20;;
63555;SDS011;49700;48.072;7.800;2023-04-16T05:11:35;12.98;;;9.20;;
63555;SDS011;49700;48.072;7.800;2023-04-16T05:14:01;9.80;;;8.80;;
63555;SDS011;49700;48.072;7.800;2023-04-16T05:16:26;10.07;;;8.70;;
63555;SDS011;49700;48.072;7.800;2023-04-16T05:18:51;10.07;;;7.63;;
63555;SDS011;49700;48.072;7.800;2023-04-16T05:21:17;11.03;;;8.90;;
63555;SDS011;49700;48.072;7.800;2023-04-16T05:23:42;13.70;;;8.57;;
63555;SDS011;49700;48.072;7.800;2023-04-16T05:26:08;11.10;;;8.30;;
63555;SDS011;49700;48.072;7.800;2023-04-16T05:28:33;12.83;;;8.87;;
63555;SDS011;49700;48.072;7.800;2023-04-16T05:30:58;13.07;;;9.77;;
63555;SDS011;49700;48.072;7.800;2023-04-16T05:33:24;11.90;;;8.63;;
63555;SDS011;49700;48.072;7.800;2023-04-16T05:35:49;15.67;;;9.80;;
63555;SDS011;49700;48.072;7.800;2023-04-16T05:38:15;12.33;;;9.53;;
63555;SDS011;49700;48.072;7.800;2023-04-16T05:40:40;13.30;;;9.17;;
63555;SDS011;49700;48.072;7.800;2023-04-16T05:43:06;12.20;;;8.67;;
63555;SDS011;49700;48.072;7.800;2023-04-16T05:45:31;12.03;;;9.67;;
63555;SDS011;49700;48.072;7.800;2023-04-16T05:47:57;11.40;;;9.40;;
63555;SDS011;49700;48.072;7.800;2023-04-16T05:50:22;10.70;;;8.40;;
63555;SDS011;49700;48.072;7.800;2023-04-16T05:52:48;9.97;;;8.83;;
63555;SDS011;49700;48.072;7.800;2023-04-16T05:55:13;11.00;;;8.60;;
63555;SDS011;49700;48.072;7.800;2023-04-16T05:57:39;10.50;;;8.00;;
63555;SDS011;49700;48.072;7.800;2023-04-16T06:00:04;13.53;;;9.47;;
63555;SDS011;49700;48.072;7.800;2023-04-16T06:02:37;10.10;;;7.80;;
63555;SDS011;49700;48.072;7.800;2023-04-16T06:05:02;9.30;;;7.87;;
63555;SDS011;49700;48.072;7.800;2023-04-16T06:07:28;13.37;;;9.47;;
63555;SDS011;49700;48.072;7.800;2023-04-16T06:09:53;10.43;;;8.40;;
63555;SDS011;49700;48.072;7.800;2023-04-16T06:12:19;12.53;;;9.17;;
63555;SDS011;49700;48.072;7.800;2023-04-16T06:14:44;12.40;;;8.57;;
63555;SDS011;49700;48.072;7.800;2023-04-16T06:17:10;9.93;;;8.80;;
63555;SDS011;49700;48.072;7.800;2023-04-16T06:19:36;9.53;;;7.80;;
63555;SDS011;49700;48.072;7.800;2023-04-16T06:22:01;11.80;;;9.20;;
63555;SDS011;49700;48.072;7.800;2023-04-16T06:24:26;12.00;;;9.67;;
63555;SDS011;49700;48.072;7.800;2023-04-16T06:26:52;13.43;;;9.20;;
63555;SDS011;49700;48.072;7.800;2023-04-16T06:29:18;13.30;;;9.13;;
63555;SDS011;49700;48.072;7.800;2023-04-16T06:31:43;9.90;;;8.87;;
63555;SDS011;49700;48.072;7.800;2023-04-16T06:34:09;11.17;;;9.53;;
63555;SDS011;49700;48.072;7.800;2023-04-16T06:36:34;14.40;;;8.70;;
63555;SDS011;49700;48.072;7.800;2023-04-16T06:39:01;11.23;;;8.65;;
63555;SDS011;49700;48.072;7.800;2023-04-16T06:41:27;12.80;;;9.67;;
63555;SDS011;49700;48.072;7.800;2023-04-16T06:43:52;10.50;;;7.73;;
63555;SDS011;49700;48.072;7.800;2023-04-16T06:46:18;8.97;;;6.57;;
63555;SDS011;49700;48.072;7.800;2023-04-16T06:48:43;7.63;;;6.20;;
63555;SDS011;49700;48.072;7.800;2023-04-16T06:51:09;7.67;;;6.03;;
63555;SDS011;49700;48.072;7.800;2023-04-16T06:53:35;5.95;;;5.38;;
63555;SDS011;49700;48.072;7.800;2023-04-16T06:56:01;7.90;;;6.43;;
63555;SDS011;49700;48.072;7.800;2023-04-16T06:58:27;7.40;;;6.40;;
63555;SDS011;49700;48.072;7.800;2023-04-16T07:00:52;5.70;;;5.17;;
63555;SDS011;49700;48.072;7.800;2023-04-16T07:03:18;7.60;;;6.50;;
63555;SDS011;49700;48.072;7.800;2023-04-16T07:05:43;9.07;;;7.33;;
63555;SDS011;49700;48.072;7.800;2023-04-16T07:08:08;9.60;;;6.73;;
63555;SDS011;49700;48.072;7.800;2023-04-16T07:10:34;9.37;;;7.73;;
63555;SDS011;49700;48.072;7.800;2023-04-16T07:13:00;8.00;;;7.20;;
63555;SDS011;49700;48.072;7.800;2023-04-16T07:15:25;7.30;;;6.30;;
63555;SDS011;49700;48.072;7.800;2023-04-16T07:17:51;8.87;;;6.50;;
63555;SDS011;49700;48.072;7.800;2023-04-16T07:20:16;7.73;;;6.07;;
63555;SDS011;49700;48.072;7.800;2023-04-16T07:22:42;8.77;;;7.87;;
63555;SDS011;49700;48.072;7.800;2023-04-16T07:25:07;9.13;;;8.30;;
63555;SDS011;49700;48.072;7.800;2023-04-16T07:27:33;7.70;;;6.90;;
63555;SDS011;49700;48.072;7.800;2023-04-16T07:29:58;7.63;;;6.83;;
63555;SDS011;49700;48.072;7.800;2023-04-16T07:32:24;10.20;;;8.60;;
63555;SDS011;49700;48.072;7.800;2023-04-16T07:34:49;7.57;;;6.63;;
63555;SDS011;49700;48.072;7.800;2023-04-16T07:37:15;8.43;;;7.43;;
63555;SDS011;49700;48.072;7.800;2023-04-16T07:39:40;10.20;;;7.23;;
63555;SDS011;49700;48.072;7.800;2023-04-16T07:42:06;10.90;;;7.90;;
63555;SDS011;49700;48.072;7.800;2023-04-16T07:44:31;8.70;;;7.13;;
63555;SDS011;49700;48.072;7.800;2023-04-16T07:46:57;9.17;;;7.50;;
63555;SDS011;49700;48.072;7.800;2023-04-16T07:49:22;10.13;;;8.97;;
63555;SDS011;49700;48.072;7.800;2023-04-16T07:51:47;8.20;;;6.50;;
63555;SDS011;49700;48.072;7.800;2023-04-16T07:54:13;10.20;;;6.47;;
63555;SDS011;49700;48.072;7.800;2023-04-16T07:56:39;11.40;;;8.00;;
63555;SDS011;49700;48.072;7.800;2023-04-16T07:59:04;10.77;;;8.00;;
63555;SDS011;49700;48.072;7.800;2023-04-16T08:01:30;9.00;;;7.07;;
63555;SDS011;49700;48.072;7.800;2023-04-16T08:03:55;9.00;;;8.10;;
63555;SDS011;49700;48.072;7.800;2023-04-16T08:06:21;9.60;;;6.40;;
63555;SDS011;49700;48.072;7.800;2023-04-16T08:08:46;9.60;;;7.50;;
63555;SDS011;49700;48.072;7.800;2023-04-16T08:11:11;9.20;;;6.70;;
63555;SDS011;49700;48.072;7.800;2023-04-16T08:13:37;7.67;;;6.97;;
63555;SDS011;49700;48.072;7.800;2023-04-16T08:16:02;8.03;;;6.20;;
63555;SDS011;49700;48.072;7.800;2023-04-16T08:18:28;9.37;;;8.43;;
63555;SDS011;49700;48.072;7.800;2023-04-16T08:20:53;8.53;;;6.40;;
63555;SDS011;49700;48.072;7.800;2023-04-16T08:23:19;8.20;;;6.37;;
63555;SDS011;49700;48.072;7.800;2023-04-16T08:25:46;6.90;;;6.10;;
63555;SDS011;49700;48.072;7.800;2023-04-16T08:28:11;11.10;;;6.95;;
63555;SDS011;49700;48.072;7.800;2023-04-16T08:30:37;9.03;;;6.47;;
63555;SDS011;49700;48.072;7.800;2023-04-16T08:33:02;9.77;;;6.43;;
63555;SDS011;49700;48.072;7.800;2023-04-16T08:35:28;8.87;;;6.20;;
63555;SDS011;49700;48.072;7.800;2023-04-16T08:37:53;9.80;;;6.40;;
63555;SDS011;49700;48.072;7.800;2023-04-16T08:40:18;7.57;;;5.70;;
63555;SDS011;49700;48.072;7.800;2023-04-16T08:42:46;7.17;;;6.33;;
63555;SDS011;49700;48.072;7.800;2023-04-16T08:45:17;8.35;;;6.82;;
63555;SDS011;49700;48.072;7.800;2023-04-16T08:47:51;10.70;;;6.17;;
63555;SDS011;49700;48.072;7.800;2023-04-16T08:50:21;8.10;;;6.50;;
63555;SDS011;49700;48.072;7.800;2023-04-16T08:52:51;8.88;;;7.53;;
63555;SDS011;49700;48.072;7.800;2023-04-16T08:55:21;8.73;;;7.13;;
63555;SDS011;49700;48.072;7.800;2023-04-16T08:57:53;8.23;;;6.20;;
63555;SDS011;49700;48.072;7.800;2023-04-16T09:00:23;8.85;;;7.35;;
63555;SDS011;49700;48.072;7.800;2023-04-16T09:02:49;8.55;;;6.28;;
63555;SDS011;49700;48.072;7.800;2023-04-16T09:05:15;7.53;;;6.75;;
63555;SDS011;49700;48.072;7.800;2023-04-16T09:07:45;11.68;;;8.10;;
63555;SDS011;49700;48.072;7.800;2023-04-16T09:10:11;9.80;;;7.25;;
63555;SDS011;49700;48.072;7.800;2023-04-16T09:12:39;13.10;;;7.43;;
63555;SDS011;49700;48.072;7.800;2023-04-16T09:15:06;8.70;;;5.97;;
63555;SDS011;49700;48.072;7.800;2023-04-16T09:17:33;13.50;;;7.68;;
63555;SDS011;49700;48.072;7.800;2023-04-16T09:19:59;10.93;;;8.00;;
63555;SDS011;49700;48.072;7.800;2023-04-16T09:22:25;11.07;;;7.67;;
63555;SDS011;49700;48.072;7.800;2023-04-16T09:24:50;9.93;;;8.37;;
63555;SDS011;49700;48.072;7.800;2023-04-16T09:27:16;10.53;;;8.00;;
63555;SDS011;49700;48.072;7.800;2023-04-16T09:29:41;10.10;;;9.10;;
63555;SDS011;49700;48.072;7.800;2023-04-16T09:32:07;12.23;;;7.80;;
63555;SDS011;49700;48.072;7.800;2023-04-16T09:34:34;10.10;;;8.25;;
63555;SDS011;49700;48.072;7.800;2023-04-16T09:37:18;11.40;;;7.55;;
63555;SDS011;49700;48.072;7.800;2023-04-16T09:39:44;9.53;;;7.50;;
63555;SDS011;49700;48.072;7.800;2023-04-16T09:42:20;10.00;;;8.05;;
63555;SDS011;49700;48.072;7.800;2023-04-16T09:44:49;11.93;;;8.25;;
63555;SDS011;49700;48.072;7.800;2023-04-16T09:47:16;12.30;;;7.85;;
63555;SDS011;49700;48.072;7.800;2023-04-16T09:49:42;11.13;;;9.97;;
63555;SDS011;49700;48.072;7.800;2023-04-16T09:52:08;13.30;;;8.90;;
63555;SDS011;49700;48.072;7.800;2023-04-16T09:54:38;12.57;;;8.27;;
63555;SDS011;49700;48.072;7.800;2023-04-16T09:57:10;11.45;;;7.22;;
63555;SDS011;49700;48.072;7.800;2023-04-16T09:59:36;11.20;;;7.60;;
63555;SDS011;49700;48.072;7.800;2023-04-16T10:02:01;8.50;;;6.70;;
63555;SDS011;49700;48.072;7.800;2023-04-16T10:04:27;9.87;;;7.00;;
63555;SDS011;49700;48.072;7.800;2023-04-16T10:07:02;13.73;;;8.20;;
63555;SDS011;49700;48.072;7.800;2023-04-16T10:09:31;9.07;;;6.88;;
63555;SDS011;49700;48.072;7.800;2023-04-16T10:12:01;11.32;;;7.20;;
63555;SDS011;49700;48.072;7.800;2023-04-16T10:14:26;10.67;;;7.30;;
63555;SDS011;49700;48.072;7.800;2023-04-16T10:16:52;13.60;;;9.87;;
63555;SDS011;49700;48.072;7.800;2023-04-16T10:19:17;9.87;;;7.50;;
63555;SDS011;49700;48.072;7.800;2023-04-16T10:21:44;12.18;;;7.93;;
63555;SDS011;49700;48.072;7.800;2023-04-16T10:24:10;11.87;;;9.57;;
63555;SDS011;49700;48.072;7.800;2023-04-16T10:26:37;10.45;;;8.32;;
63555;SDS011;49700;48.072;7.800;2023-04-16T10:29:05;13.75;;;11.80;;
63555;SDS011;49700;48.072;7.800;2023-04-16T10:31:33;20.27;;;9.43;;
63555;SDS011;49700;48.072;7.800;2023-04-16T10:34:00;16.25;;;11.05;;
63555;SDS011;49700;48.072;7.800;2023-04-16T10:36:27;11.00;;;8.68;;
63555;SDS011;49700;48.072;7.800;2023-04-16T10:38:56;9.90;;;7.23;;
63555;SDS011;49700;48.072;7.800;2023-04-16T10:41:23;13.18;;;8.93;;
63555;SDS011;49700;48.072;7.800;2023-04-16T10:43:50;11.75;;;7.57;;
63555;SDS011;49700;48.072;7.800;2023-04-16T10:46:17;14.18;;;10.48;;
63555;SDS011;49700;48.072;7.800;2023-04-16T10:48:59;11.95;;;8.15;;
63555;SDS011;49700;48.072;7.800;2023-04-16T10:51:26;12.05;;;10.18;;
63555;SDS011;49700;48.072;7.800;2023-04-16T10:54:41;18.52;;;12.75;;
63555;SDS011;49700;48.072;7.800;2023-04-16T10:56:58;14.30;;;10.10;;
63555;SDS011;49700;48.072;7.800;2023-04-16T10:59:29;12.45;;;8.50;;
63555;SDS011;49700;48.072;7.800;2023-04-16T11:01:57;19.70;;;11.50;;
63555;SDS011;49700;48.072;7.800;2023-04-16T11:12:14;11.95;;;8.95;;
63555;SDS011;49700;48.072;7.800;2023-04-16T11:15:07;10.60;;;8.80;;
63555;SDS011;49700;48.072;7.800;2023-04-16T11:20:07;11.60;;;7.10;;
63555;SDS011;49700;48.072;7.800;2023-04-16T11:22:41;14.65;;;10.13;;
63555;SDS011;49700;48.072;7.800;2023-04-16T11:25:11;10.43;;;8.20;;
63555;SDS011;49700;48.072;7.800;2023-04-16T11:27:36;12.40;;;9.45;;
63555;SDS011;49700;48.072;7.800;2023-04-16T11:30:05;11.17;;;8.80;;
63555;SDS011;49700;48.072;7.800;2023-04-16T11:32:38;10.38;;;7.95;;
63555;SDS011;49700;48.072;7.800;2023-04-16T11:35:11;12.73;;;8.63;;
63555;SDS011;49700;48.072;7.800;2023-04-16T11:37:38;8.43;;;6.70;;
63555;SDS011;49700;48.072;7.800;2023-04-16T11:40:12;10.45;;;6.97;;
63555;SDS011;49700;48.072;7.800;2023-04-16T11:42:38;11.83;;;8.23;;
63555;SDS011;49700;48.072;7.800;2023-04-16T11:45:05;13.40;;;9.82;;
63555;SDS011;49700;48.072;7.800;2023-04-16T11:47:41;13.75;;;9.18;;
63555;SDS011;49700;48.072;7.800;2023-04-16T11:52:52;11.27;;;9.05;;
63555;SDS011;49700;48.072;7.800;2023-04-16T11:55:19;10.27;;;8.55;;
63555;SDS011;49700;48.072;7.800;2023-04-16T11:57:48;11.80;;;8.30;;
63555;SDS011;49700;48.072;7.800;2023-04-16T12:00:20;12.63;;;9.52;;
63555;SDS011;49700;48.072;7.800;2023-04-16T12:02:49;9.45;;;8.20;;
63555;SDS011;49700;48.072;7.800;2023-04-16T12:05:34;11.45;;;7.15;;
63555;SDS011;49700;48.072;7.800;2023-04-16T12:08:05;13.05;;;9.00;;
63555;SDS011;49700;48.072;7.800;2023-04-16T12:10:34;10.40;;;8.52;;
63555;SDS011;49700;48.072;7.800;2023-04-16T12:13:10;16.70;;;9.77;;
63555;SDS011;49700;48.072;7.800;2023-04-16T12:15:43;12.05;;;8.55;;
63555;SDS011;49700;48.072;7.800;2023-04-16T12:18:10;16.38;;;9.68;;
63555;SDS011;49700;48.072;7.800;2023-04-16T12:20:39;10.53;;;7.57;;
63555;SDS011;49700;48.072;7.800;2023-04-16T12:23:06;11.13;;;8.80;;
63555;SDS011;49700;48.072;7.800;2023-04-16T12:25:32;13.77;;;8.18;;
63555;SDS011;49700;48.072;7.800;2023-04-16T12:28:04;12.13;;;7.50;;
63555;SDS011;49700;48.072;7.800;2023-04-16T12:30:30;9.93;;;7.53;;
63555;SDS011;49700;48.072;7.800;2023-04-16T12:33:15;13.70;;;8.53;;
63555;SDS011;49700;48.072;7.800;2023-04-16T12:35:42;16.35;;;9.55;;
63555;SDS011;49700;48.072;7.800;2023-04-16T12:38:09;12.25;;;8.07;;
63555;SDS011;49700;48.072;7.800;2023-04-16T12:40:35;11.95;;;7.70;;
63555;SDS011;49700;48.072;7.800;2023-04-16T12:43:00;14.70;;;9.00;;
63555;SDS011;49700;48.072;7.800;2023-04-16T12:45:29;11.73;;;8.68;;
63555;SDS011;49700;48.072;7.800;2023-04-16T12:47:55;13.13;;;8.38;;
63555;SDS011;49700;48.072;7.800;2023-04-16T12:50:21;12.68;;;7.40;;
63555;SDS011;49700;48.072;7.800;2023-04-16T12:52:47;15.47;;;9.83;;
63555;SDS011;49700;48.072;7.800;2023-04-16T12:55:16;13.20;;;9.57;;
63555;SDS011;49700;48.072;7.800;2023-04-16T12:57:41;12.00;;;8.50;;
63555;SDS011;49700;48.072;7.800;2023-04-16T13:00:07;13.03;;;8.77;;
63555;SDS011;49700;48.072;7.800;2023-04-16T13:02:34;10.65;;;8.40;;
63555;SDS011;49700;48.072;7.800;2023-04-16T13:05:00;11.20;;;8.23;;
63555;SDS011;49700;48.072;7.800;2023-04-16T13:07:26;16.90;;;10.30;;
63555;SDS011;49700;48.072;7.800;2023-04-16T13:09:52;9.73;;;7.60;;
63555;SDS011;49700;48.072;7.800;2023-04-16T13:12:17;9.93;;;8.00;;
63555;SDS011;49700;48.072;7.800;2023-04-16T13:14:43;13.97;;;9.77;;
63555;SDS011;49700;48.072;7.800;2023-04-16T13:17:09;13.40;;;8.53;;
63555;SDS011;49700;48.072;7.800;2023-04-16T13:19:34;15.70;;;8.23;;
63555;SDS011;49700;48.072;7.800;2023-04-16T13:22:00;10.20;;;8.50;;
63555;SDS011;49700;48.072;7.800;2023-04-16T13:24:26;10.30;;;8.60;;
63555;SDS011;49700;48.072;7.800;2023-04-16T13:26:51;12.87;;;7.90;;
63555;SDS011;49700;48.072;7.800;2023-04-16T13:29:18;11.50;;;7.82;;
63555;SDS011;49700;48.072;7.800;2023-04-16T13:31:44;10.05;;;8.35;;
63555;SDS011;49700;48.072;7.800;2023-04-16T13:34:11;10.15;;;7.80;;
63555;SDS011;49700;48.072;7.800;2023-04-16T13:36:36;11.13;;;8.50;;
63555;SDS011;49700;48.072;7.800;2023-04-16T13:39:01;8.73;;;6.80;;
63555;SDS011;49700;48.072;7.800;2023-04-16T13:41:29;14.40;;;8.27;;
63555;SDS011;49700;48.072;7.800;2023-04-16T13:43:55;9.90;;;8.10;;
63555;SDS011;49700;48.072;7.800;2023-04-16T13:46:21;10.80;;;8.53;;
63555;SDS011;49700;48.072;7.800;2023-04-16T13:48:46;14.40;;;8.83;;
63555;SDS011;49700;48.072;7.800;2023-04-16T13:51:12;10.37;;;7.50;;
63555;SDS011;49700;48.072;7.800;2023-04-16T13:53:39;10.60;;;8.15;;
63555;SDS011;49700;48.072;7.800;2023-04-16T13:56:05;14.00;;;8.17;;
63555;SDS011;49700;48.072;7.800;2023-04-16T13:58:31;11.73;;;7.95;;
63555;SDS011;49700;48.072;7.800;2023-04-16T14:00:57;11.45;;;7.95;;
63555;SDS011;49700;48.072;7.800;2023-04-16T14:03:23;11.20;;;8.90;;
63555;SDS011;49700;48.072;7.800;2023-04-16T14:05:49;11.95;;;7.65;;
63555;SDS011;49700;48.072;7.800;2023-04-16T14:08:15;12.50;;;8.20;;
63555;SDS011;49700;48.072;7.800;2023-04-16T14:10:42;8.95;;;7.18;;
63555;SDS011;49700;48.072;7.800;2023-04-16T14:13:07;10.97;;;8.30;;
63555;SDS011;49700;48.072;7.800;2023-04-16T14:15:33;11.27;;;8.30;;
63555;SDS011;49700;48.072;7.800;2023-04-16T14:17:58;14.63;;;11.60;;
63555;SDS011;49700;48.072;7.800;2023-04-16T14:23:07;28.42;;;15.88;;
63555;SDS011;49700;48.072;7.800;2023-04-16T14:25:32;29.80;;;18.13;;
63555;SDS011;49700;48.072;7.800;2023-04-16T14:27:58;16.00;;;10.20;;
63555;SDS011;49700;48.072;7.800;2023-04-16T14:30:24;10.65;;;7.75;;
63555;SDS011;49700;48.072;7.800;2023-04-16T14:32:50;15.67;;;9.60;;
63555;SDS011;49700;48.072;7.800;2023-04-16T14:35:16;15.73;;;10.03;;
63555;SDS011;49700;48.072;7.800;2023-04-16T14:37:42;13.10;;;8.90;;
63555;SDS011;49700;48.072;7.800;2023-04-16T14:40:07;10.60;;;8.47;;
63555;SDS011;49700;48.072;7.800;2023-04-16T14:42:34;15.32;;;8.50;;
63555;SDS011;49700;48.072;7.800;2023-04-16T14:45:03;11.40;;;10.27;;
63555;SDS011;49700;48.072;7.800;2023-04-16T14:47:32;13.52;;;9.02;;
63555;SDS011;49700;48.072;7.800;2023-04-16T14:49:58;10.27;;;7.97;;